sensor_id;sensor_type;location;lat;lon;timestamp;P1;durP1;ratioP1;P2;durP2;ratioP2
7829;SDS011;3960;51.86894000;5.39848000;2022-11-11T00:00:02;22.13;;;10.23;;
7829;SDS011;3960;51.86894000;5.39848000;2022-11-11T00:02:28;18.20;;;10.00;;
7829;SDS011;3960;51.86894000;5.39848000;2022-11-11T00:04:53;20.97;;;9.63;;
7829;SDS011;3960;51.86894000;5.39848000;2022-11-11T00:07:18;21.17;;;9.50;;
7829;SDS011;3960;51.86894000;5.39848000;2022-11-11T00:09:43;17.27;;;9.43;;
7829;SDS011;3960;51.86894000;5.39848000;2022-11-11T00:12:08;21.50;;;10.27;;
7829;SDS011;3960;51.86894000;5.39848000;2022-11-11T00:14:34;16.57;;;9.60;;
7829;SDS011;3960;51.86894000;5.39848000;2022-11-11T00:16:59;13.93;;;10.20;;
7829;SDS011;3960;51.86894000;5.39848000;2022-11-11T00:19:42;25.73;;;12.32;;
7829;SDS011;3960;51.86894000;5.39848000;2022-11-11T00:22:26;18.35;;;11.65;;
7829;SDS011;3960;51.86894000;5.39848000;2022-11-11T00:25:12;19.33;;;11.75;;
7829;SDS011;3960;51.86894000;5.39848000;2022-11-11T00:27:37;20.60;;;11.57;;
7829;SDS011;3960;51.86894000;5.39848000;2022-11-11T00:30:03;19.55;;;12.45;;
7829;SDS011;3960;51.86894000;5.39848000;2022-11-11T00:32:30;21.20;;;12.25;;
7829;SDS011;3960;51.86894000;5.39848000;2022-11-11T00:34:57;17.98;;;12.00;;
7829;SDS011;3960;51.86894000;5.39848000;2022-11-11T00:37:42;21.67;;;13.10;;
7829;SDS011;3960;51.86894000;5.39848000;2022-11-11T00:40:07;25.17;;;13.40;;
7829;SDS011;3960;51.86894000;5.39848000;2022-11-11T00:42:33;24.42;;;13.45;;
7829;SDS011;3960;51.86894000;5.39848000;2022-11-11T00:44:58;20.23;;;13.70;;
7829;SDS011;3960;51.86894000;5.39848000;2022-11-11T00:47:23;26.63;;;14.23;;
7829;SDS011;3960;51.86894000;5.39848000;2022-11-11T00:50:11;27.70;;;14.40;;
7829;SDS011;3960;51.86894000;5.39848000;2022-11-11T00:52:55;28.00;;;14.90;;
7829;SDS011;3960;51.86894000;5.39848000;2022-11-11T00:55:21;26.90;;;14.87;;
7829;SDS011;3960;51.86894000;5.39848000;2022-11-11T00:57:46;31.83;;;14.83;;
7829;SDS011;3960;51.86894000;5.39848000;2022-11-11T01:00:11;25.40;;;13.73;;
7829;SDS011;3960;51.86894000;5.39848000;2022-11-11T01:02:36;22.83;;;14.52;;
7829;SDS011;3960;51.86894000;5.39848000;2022-11-11T01:05:02;35.37;;;14.93;;
7829;SDS011;3960;51.86894000;5.39848000;2022-11-11T01:07:27;22.05;;;13.82;;
7829;SDS011;3960;51.86894000;5.39848000;2022-11-11T01:09:52;25.25;;;14.75;;
7829;SDS011;3960;51.86894000;5.39848000;2022-11-11T01:12:18;24.75;;;15.15;;
7829;SDS011;3960;51.86894000;5.39848000;2022-11-11T01:14:43;21.50;;;14.60;;
7829;SDS011;3960;51.86894000;5.39848000;2022-11-11T01:17:08;26.23;;;14.53;;
7829;SDS011;3960;51.86894000;5.39848000;2022-11-11T01:19:33;21.05;;;14.18;;
7829;SDS011;3960;51.86894000;5.39848000;2022-11-11T01:21:59;24.38;;;14.70;;
7829;SDS011;3960;51.86894000;5.39848000;2022-11-11T01:24:24;27.60;;;15.20;;
7829;SDS011;3960;51.86894000;5.39848000;2022-11-11T01:26:49;21.93;;;14.87;;
7829;SDS011;3960;51.86894000;5.39848000;2022-11-11T01:29:16;26.20;;;15.90;;
7829;SDS011;3960;51.86894000;5.39848000;2022-11-11T01:31:41;30.33;;;16.27;;
7829;SDS011;3960;51.86894000;5.39848000;2022-11-11T01:34:06;25.73;;;16.70;;
7829;SDS011;3960;51.86894000;5.39848000;2022-11-11T01:36:31;23.15;;;15.90;;
7829;SDS011;3960;51.86894000;5.39848000;2022-11-11T01:38:57;26.63;;;16.25;;
7829;SDS011;3960;51.86894000;5.39848000;2022-11-11T01:41:24;26.52;;;15.35;;
7829;SDS011;3960;51.86894000;5.39848000;2022-11-11T01:48:54;28.98;;;16.02;;
7829;SDS011;3960;51.86894000;5.39848000;2022-11-11T01:54:12;27.60;;;15.63;;
7829;SDS011;3960;51.86894000;5.39848000;2022-11-11T01:56:39;25.88;;;16.33;;
7829;SDS011;3960;51.86894000;5.39848000;2022-11-11T01:59:06;26.90;;;15.35;;
7829;SDS011;3960;51.86894000;5.39848000;2022-11-11T02:01:33;26.88;;;15.10;;
7829;SDS011;3960;51.86894000;5.39848000;2022-11-11T02:03:59;26.35;;;15.13;;
7829;SDS011;3960;51.86894000;5.39848000;2022-11-11T02:06:43;28.52;;;15.55;;
7829;SDS011;3960;51.86894000;5.39848000;2022-11-11T02:09:08;24.33;;;15.33;;
7829;SDS011;3960;51.86894000;5.39848000;2022-11-11T02:11:35;28.55;;;15.23;;
7829;SDS011;3960;51.86894000;5.39848000;2022-11-11T02:14:20;29.52;;;15.73;;
7829;SDS011;3960;51.86894000;5.39848000;2022-11-11T02:17:08;28.08;;;16.15;;
7829;SDS011;3960;51.86894000;5.39848000;2022-11-11T02:19:44;27.08;;;16.83;;
7829;SDS011;3960;51.86894000;5.39848000;2022-11-11T02:22:12;24.25;;;16.15;;
7829;SDS011;3960;51.86894000;5.39848000;2022-11-11T02:24:37;25.33;;;14.88;;
7829;SDS011;3960;51.86894000;5.39848000;2022-11-11T02:27:03;32.40;;;16.30;;
7829;SDS011;3960;51.86894000;5.39848000;2022-11-11T02:29:29;27.27;;;16.10;;
7829;SDS011;3960;51.86894000;5.39848000;2022-11-11T02:31:55;30.60;;;16.65;;
7829;SDS011;3960;51.86894000;5.39848000;2022-11-11T02:34:25;24.83;;;14.73;;
7829;SDS011;3960;51.86894000;5.39848000;2022-11-11T02:36:52;25.08;;;14.80;;
7829;SDS011;3960;51.86894000;5.39848000;2022-11-11T02:39:17;29.93;;;14.13;;
7829;SDS011;3960;51.86894000;5.39848000;2022-11-11T02:41:46;29.25;;;14.38;;
7829;SDS011;3960;51.86894000;5.39848000;2022-11-11T02:44:24;23.95;;;14.88;;
7829;SDS011;3960;51.86894000;5.39848000;2022-11-11T02:46:49;26.20;;;15.57;;
7829;SDS011;3960;51.86894000;5.39848000;2022-11-11T02:49:14;33.67;;;15.33;;
7829;SDS011;3960;51.86894000;5.39848000;2022-11-11T02:51:40;33.03;;;15.07;;
7829;SDS011;3960;51.86894000;5.39848000;2022-11-11T02:54:05;25.33;;;15.23;;
7829;SDS011;3960;51.86894000;5.39848000;2022-11-11T02:56:30;27.00;;;14.10;;
7829;SDS011;3960;51.86894000;5.39848000;2022-11-11T02:59:14;25.38;;;15.52;;
7829;SDS011;3960;51.86894000;5.39848000;2022-11-11T03:01:39;24.52;;;15.18;;
7829;SDS011;3960;51.86894000;5.39848000;2022-11-11T03:04:04;33.63;;;16.20;;
7829;SDS011;3960;51.86894000;5.39848000;2022-11-11T03:06:29;27.92;;;14.95;;
7829;SDS011;3960;51.86894000;5.39848000;2022-11-11T03:08:55;22.07;;;15.33;;
7829;SDS011;3960;51.86894000;5.39848000;2022-11-11T03:11:20;24.80;;;14.35;;
7829;SDS011;3960;51.86894000;5.39848000;2022-11-11T03:16:16;28.70;;;17.10;;
7829;SDS011;3960;51.86894000;5.39848000;2022-11-11T03:19:00;31.25;;;16.45;;
7829;SDS011;3960;51.86894000;5.39848000;2022-11-11T03:21:25;26.43;;;16.47;;
7829;SDS011;3960;51.86894000;5.39848000;2022-11-11T03:23:50;22.77;;;15.20;;
7829;SDS011;3960;51.86894000;5.39848000;2022-11-11T03:26:15;29.80;;;16.23;;
7829;SDS011;3960;51.86894000;5.39848000;2022-11-11T03:28:41;27.50;;;15.40;;
7829;SDS011;3960;51.86894000;5.39848000;2022-11-11T03:31:06;23.90;;;15.43;;
7829;SDS011;3960;51.86894000;5.39848000;2022-11-11T03:33:31;28.73;;;15.10;;
7829;SDS011;3960;51.86894000;5.39848000;2022-11-11T03:35:56;23.40;;;14.10;;
7829;SDS011;3960;51.86894000;5.39848000;2022-11-11T03:38:21;22.90;;;14.40;;
7829;SDS011;3960;51.86894000;5.39848000;2022-11-11T03:40:51;25.08;;;13.32;;
7829;SDS011;3960;51.86894000;5.39848000;2022-11-11T03:43:17;26.13;;;14.85;;
7829;SDS011;3960;51.86894000;5.39848000;2022-11-11T03:45:42;23.50;;;14.13;;
7829;SDS011;3960;51.86894000;5.39848000;2022-11-11T03:48:08;16.88;;;12.35;;
7829;SDS011;3960;51.86894000;5.39848000;2022-11-11T03:50:33;24.27;;;13.00;;
7829;SDS011;3960;51.86894000;5.39848000;2022-11-11T03:52:59;25.17;;;12.95;;
7829;SDS011;3960;51.86894000;5.39848000;2022-11-11T03:55:24;23.02;;;13.45;;
7829;SDS011;3960;51.86894000;5.39848000;2022-11-11T03:57:49;22.70;;;12.35;;
7829;SDS011;3960;51.86894000;5.39848000;2022-11-11T04:00:16;22.80;;;13.00;;
7829;SDS011;3960;51.86894000;5.39848000;2022-11-11T04:02:41;26.58;;;13.23;;
7829;SDS011;3960;51.86894000;5.39848000;2022-11-11T04:05:25;24.85;;;13.68;;
7829;SDS011;3960;51.86894000;5.39848000;2022-11-11T04:08:13;23.60;;;14.38;;
7829;SDS011;3960;51.86894000;5.39848000;2022-11-11T04:10:58;23.77;;;14.60;;
7829;SDS011;3960;51.86894000;5.39848000;2022-11-11T04:13:24;26.05;;;13.70;;
7829;SDS011;3960;51.86894000;5.39848000;2022-11-11T04:16:08;21.00;;;14.05;;
7829;SDS011;3960;51.86894000;5.39848000;2022-11-11T04:18:34;24.95;;;13.95;;
7829;SDS011;3960;51.86894000;5.39848000;2022-11-11T04:21:18;24.98;;;13.82;;
7829;SDS011;3960;51.86894000;5.39848000;2022-11-11T04:24:02;26.35;;;13.15;;
7829;SDS011;3960;51.86894000;5.39848000;2022-11-11T04:26:47;23.88;;;12.73;;
7829;SDS011;3960;51.86894000;5.39848000;2022-11-11T04:29:12;21.92;;;12.27;;
7829;SDS011;3960;51.86894000;5.39848000;2022-11-11T04:31:53;25.77;;;12.65;;
7829;SDS011;3960;51.86894000;5.39848000;2022-11-11T04:34:37;20.48;;;12.48;;
7829;SDS011;3960;51.86894000;5.39848000;2022-11-11T04:37:02;24.03;;;13.00;;
7829;SDS011;3960;51.86894000;5.39848000;2022-11-11T04:39:27;23.85;;;11.45;;
7829;SDS011;3960;51.86894000;5.39848000;2022-11-11T04:42:11;22.58;;;12.25;;
7829;SDS011;3960;51.86894000;5.39848000;2022-11-11T04:44:36;21.63;;;11.37;;
7829;SDS011;3960;51.86894000;5.39848000;2022-11-11T04:47:20;19.13;;;11.60;;
7829;SDS011;3960;51.86894000;5.39848000;2022-11-11T04:49:45;26.97;;;12.13;;
7829;SDS011;3960;51.86894000;5.39848000;2022-11-11T04:52:10;21.13;;;11.67;;
7829;SDS011;3960;51.86894000;5.39848000;2022-11-11T04:54:54;21.15;;;11.85;;
7829;SDS011;3960;51.86894000;5.39848000;2022-11-11T04:57:42;19.55;;;11.85;;
7829;SDS011;3960;51.86894000;5.39848000;2022-11-11T05:00:14;22.05;;;12.32;;
7829;SDS011;3960;51.86894000;5.39848000;2022-11-11T05:02:40;21.25;;;12.05;;
7829;SDS011;3960;51.86894000;5.39848000;2022-11-11T05:05:24;18.90;;;11.98;;
7829;SDS011;3960;51.86894000;5.39848000;2022-11-11T05:07:50;24.45;;;12.73;;
7829;SDS011;3960;51.86894000;5.39848000;2022-11-11T05:10:34;21.23;;;12.55;;
7829;SDS011;3960;51.86894000;5.39848000;2022-11-11T05:12:59;23.10;;;11.90;;
7829;SDS011;3960;51.86894000;5.39848000;2022-11-11T05:15:43;26.05;;;12.20;;
7829;SDS011;3960;51.86894000;5.39848000;2022-11-11T05:18:27;24.92;;;13.13;;
7829;SDS011;3960;51.86894000;5.39848000;2022-11-11T05:21:15;19.27;;;11.95;;
7829;SDS011;3960;51.86894000;5.39848000;2022-11-11T05:23:45;23.23;;;12.13;;
7829;SDS011;3960;51.86894000;5.39848000;2022-11-11T05:26:28;21.13;;;12.75;;
7829;SDS011;3960;51.86894000;5.39848000;2022-11-11T05:28:54;22.07;;;11.67;;
7829;SDS011;3960;51.86894000;5.39848000;2022-11-11T05:31:19;27.27;;;12.07;;
7829;SDS011;3960;51.86894000;5.39848000;2022-11-11T05:33:44;23.55;;;12.00;;
7829;SDS011;3960;51.86894000;5.39848000;2022-11-11T05:36:09;24.50;;;11.30;;
7829;SDS011;3960;51.86894000;5.39848000;2022-11-11T05:38:34;17.47;;;11.07;;
7829;SDS011;3960;51.86894000;5.39848000;2022-11-11T05:40:59;21.07;;;12.00;;
7829;SDS011;3960;51.86894000;5.39848000;2022-11-11T05:43:25;21.50;;;11.40;;
7829;SDS011;3960;51.86894000;5.39848000;2022-11-11T05:45:50;21.37;;;12.00;;
7829;SDS011;3960;51.86894000;5.39848000;2022-11-11T05:48:15;25.53;;;12.53;;
7829;SDS011;3960;51.86894000;5.39848000;2022-11-11T05:50:40;22.17;;;12.17;;
7829;SDS011;3960;51.86894000;5.39848000;2022-11-11T05:53:06;27.65;;;12.40;;
7829;SDS011;3960;51.86894000;5.39848000;2022-11-11T05:55:31;18.70;;;12.27;;
7829;SDS011;3960;51.86894000;5.39848000;2022-11-11T05:57:56;23.60;;;11.83;;
7829;SDS011;3960;51.86894000;5.39848000;2022-11-11T06:00:21;25.90;;;12.17;;
7829;SDS011;3960;51.86894000;5.39848000;2022-11-11T06:02:46;18.90;;;12.43;;
7829;SDS011;3960;51.86894000;5.39848000;2022-11-11T06:05:12;21.47;;;12.63;;
7829;SDS011;3960;51.86894000;5.39848000;2022-11-11T06:07:37;22.90;;;13.00;;
7829;SDS011;3960;51.86894000;5.39848000;2022-11-11T06:10:03;23.75;;;13.10;;
7829;SDS011;3960;51.86894000;5.39848000;2022-11-11T06:12:55;28.33;;;13.70;;
7829;SDS011;3960;51.86894000;5.39848000;2022-11-11T06:15:26;23.55;;;12.48;;
7829;SDS011;3960;51.86894000;5.39848000;2022-11-11T06:17:51;22.50;;;12.38;;
7829;SDS011;3960;51.86894000;5.39848000;2022-11-11T06:20:16;23.70;;;12.80;;
7829;SDS011;3960;51.86894000;5.39848000;2022-11-11T06:22:42;26.27;;;13.77;;
7829;SDS011;3960;51.86894000;5.39848000;2022-11-11T06:25:31;26.17;;;13.90;;
7829;SDS011;3960;51.86894000;5.39848000;2022-11-11T06:28:16;26.92;;;14.05;;
7829;SDS011;3960;51.86894000;5.39848000;2022-11-11T06:30:42;23.23;;;13.30;;
7829;SDS011;3960;51.86894000;5.39848000;2022-11-11T06:33:07;22.85;;;13.50;;
7829;SDS011;3960;51.86894000;5.39848000;2022-11-11T06:35:33;26.13;;;11.98;;
7829;SDS011;3960;51.86894000;5.39848000;2022-11-11T06:37:59;27.13;;;14.10;;
7829;SDS011;3960;51.86894000;5.39848000;2022-11-11T06:40:24;23.70;;;12.95;;
7829;SDS011;3960;51.86894000;5.39848000;2022-11-11T06:42:49;26.42;;;13.48;;
7829;SDS011;3960;51.86894000;5.39848000;2022-11-11T06:45:14;24.13;;;13.83;;
7829;SDS011;3960;51.86894000;5.39848000;2022-11-11T06:47:41;27.15;;;13.40;;
7829;SDS011;3960;51.86894000;5.39848000;2022-11-11T06:50:06;22.30;;;13.18;;
7829;SDS011;3960;51.86894000;5.39848000;2022-11-11T06:52:31;26.38;;;13.93;;
7829;SDS011;3960;51.86894000;5.39848000;2022-11-11T06:54:57;28.67;;;13.20;;
7829;SDS011;3960;51.86894000;5.39848000;2022-11-11T06:57:22;24.77;;;13.18;;
7829;SDS011;3960;51.86894000;5.39848000;2022-11-11T06:59:47;23.33;;;13.50;;
7829;SDS011;3960;51.86894000;5.39848000;2022-11-11T07:02:12;22.07;;;12.70;;
7829;SDS011;3960;51.86894000;5.39848000;2022-11-11T07:04:38;26.20;;;13.68;;
7829;SDS011;3960;51.86894000;5.39848000;2022-11-11T07:07:03;27.42;;;14.30;;
7829;SDS011;3960;51.86894000;5.39848000;2022-11-11T07:09:28;33.35;;;14.63;;
7829;SDS011;3960;51.86894000;5.39848000;2022-11-11T07:11:53;24.37;;;14.00;;
7829;SDS011;3960;51.86894000;5.39848000;2022-11-11T07:14:18;25.30;;;14.15;;
7829;SDS011;3960;51.86894000;5.39848000;2022-11-11T07:16:44;29.08;;;14.07;;
7829;SDS011;3960;51.86894000;5.39848000;2022-11-11T07:19:09;23.40;;;13.83;;
7829;SDS011;3960;51.86894000;5.39848000;2022-11-11T07:21:34;23.55;;;14.10;;
7829;SDS011;3960;51.86894000;5.39848000;2022-11-11T07:23:59;25.50;;;14.00;;
7829;SDS011;3960;51.86894000;5.39848000;2022-11-11T07:26:24;22.30;;;13.80;;
7829;SDS011;3960;51.86894000;5.39848000;2022-11-11T07:28:49;25.43;;;13.77;;
7829;SDS011;3960;51.86894000;5.39848000;2022-11-11T07:31:15;23.00;;;13.88;;
7829;SDS011;3960;51.86894000;5.39848000;2022-11-11T07:33:40;22.52;;;12.50;;
7829;SDS011;3960;51.86894000;5.39848000;2022-11-11T07:36:05;24.00;;;13.02;;
7829;SDS011;3960;51.86894000;5.39848000;2022-11-11T07:38:30;25.67;;;13.27;;
7829;SDS011;3960;51.86894000;5.39848000;2022-11-11T07:40:56;25.77;;;12.17;;
7829;SDS011;3960;51.86894000;5.39848000;2022-11-11T07:43:21;24.83;;;13.20;;
7829;SDS011;3960;51.86894000;5.39848000;2022-11-11T07:45:46;25.63;;;12.90;;
7829;SDS011;3960;51.86894000;5.39848000;2022-11-11T07:48:11;21.02;;;11.23;;
7829;SDS011;3960;51.86894000;5.39848000;2022-11-11T07:50:36;21.95;;;12.60;;
7829;SDS011;3960;51.86894000;5.39848000;2022-11-11T07:53:01;25.17;;;13.00;;
7829;SDS011;3960;51.86894000;5.39848000;2022-11-11T07:55:27;25.60;;;12.53;;
7829;SDS011;3960;51.86894000;5.39848000;2022-11-11T07:57:52;20.70;;;12.63;;
7829;SDS011;3960;51.86894000;5.39848000;2022-11-11T08:00:17;26.02;;;11.95;;
7829;SDS011;3960;51.86894000;5.39848000;2022-11-11T08:02:46;20.73;;;12.27;;
7829;SDS011;3960;51.86894000;5.39848000;2022-11-11T08:05:11;19.90;;;12.77;;
7829;SDS011;3960;51.86894000;5.39848000;2022-11-11T08:07:36;21.30;;;12.50;;
7829;SDS011;3960;51.86894000;5.39848000;2022-11-11T08:10:02;24.20;;;12.70;;
7829;SDS011;3960;51.86894000;5.39848000;2022-11-11T08:12:27;29.63;;;13.35;;
7829;SDS011;3960;51.86894000;5.39848000;2022-11-11T08:15:11;21.33;;;13.68;;
7829;SDS011;3960;51.86894000;5.39848000;2022-11-11T08:17:36;20.13;;;13.10;;
7829;SDS011;3960;51.86894000;5.39848000;2022-11-11T08:20:03;20.88;;;13.40;;
7829;SDS011;3960;51.86894000;5.39848000;2022-11-11T08:22:28;21.90;;;13.32;;
7829;SDS011;3960;51.86894000;5.39848000;2022-11-11T08:24:53;21.63;;;13.13;;
7829;SDS011;3960;51.86894000;5.39848000;2022-11-11T08:27:18;20.23;;;13.23;;
7829;SDS011;3960;51.86894000;5.39848000;2022-11-11T08:29:43;23.20;;;12.83;;
7829;SDS011;3960;51.86894000;5.39848000;2022-11-11T08:32:09;22.00;;;13.47;;
7829;SDS011;3960;51.86894000;5.39848000;2022-11-11T08:34:35;21.48;;;12.77;;
7829;SDS011;3960;51.86894000;5.39848000;2022-11-11T08:37:00;23.13;;;12.30;;
7829;SDS011;3960;51.86894000;5.39848000;2022-11-11T08:39:25;18.42;;;12.07;;
7829;SDS011;3960;51.86894000;5.39848000;2022-11-11T08:41:51;17.57;;;11.50;;
7829;SDS011;3960;51.86894000;5.39848000;2022-11-11T08:44:16;19.02;;;11.00;;
7829;SDS011;3960;51.86894000;5.39848000;2022-11-11T08:46:41;18.95;;;11.20;;
7829;SDS011;3960;51.86894000;5.39848000;2022-11-11T08:49:06;18.70;;;11.20;;
7829;SDS011;3960;51.86894000;5.39848000;2022-11-11T08:51:32;19.25;;;10.60;;
7829;SDS011;3960;51.86894000;5.39848000;2022-11-11T08:53:57;19.93;;;10.70;;
7829;SDS011;3960;51.86894000;5.39848000;2022-11-11T08:56:23;18.85;;;10.65;;
7829;SDS011;3960;51.86894000;5.39848000;2022-11-11T08:58:48;17.37;;;10.70;;
7829;SDS011;3960;51.86894000;5.39848000;2022-11-11T09:01:13;21.23;;;9.73;;
7829;SDS011;3960;51.86894000;5.39848000;2022-11-11T09:03:39;17.33;;;9.90;;
7829;SDS011;3960;51.86894000;5.39848000;2022-11-11T09:06:07;16.90;;;9.55;;
7829;SDS011;3960;51.86894000;5.39848000;2022-11-11T09:08:32;18.53;;;10.07;;
7829;SDS011;3960;51.86894000;5.39848000;2022-11-11T09:10:57;13.65;;;9.15;;
7829;SDS011;3960;51.86894000;5.39848000;2022-11-11T09:13:23;11.45;;;8.80;;
7829;SDS011;3960;51.86894000;5.39848000;2022-11-11T09:15:49;15.90;;;9.27;;
7829;SDS011;3960;51.86894000;5.39848000;2022-11-11T09:18:16;13.68;;;8.57;;
7829;SDS011;3960;51.86894000;5.39848000;2022-11-11T09:20:41;14.13;;;8.30;;
7829;SDS011;3960;51.86894000;5.39848000;2022-11-11T09:23:07;15.97;;;9.07;;
7829;SDS011;3960;51.86894000;5.39848000;2022-11-11T09:25:32;14.15;;;8.55;;
7829;SDS011;3960;51.86894000;5.39848000;2022-11-11T09:27:58;15.13;;;8.50;;
7829;SDS011;3960;51.86894000;5.39848000;2022-11-11T09:30:24;14.10;;;8.60;;
7829;SDS011;3960;51.86894000;5.39848000;2022-11-11T09:32:49;12.77;;;7.97;;
7829;SDS011;3960;51.86894000;5.39848000;2022-11-11T09:35:14;12.95;;;8.65;;
7829;SDS011;3960;51.86894000;5.39848000;2022-11-11T09:37:40;10.68;;;8.20;;
7829;SDS011;3960;51.86894000;5.39848000;2022-11-11T09:40:05;12.27;;;9.07;;
7829;SDS011;3960;51.86894000;5.39848000;2022-11-11T09:42:38;12.35;;;8.80;;
7829;SDS011;3960;51.86894000;5.39848000;2022-11-11T09:45:15;12.65;;;8.00;;
7829;SDS011;3960;51.86894000;5.39848000;2022-11-11T09:50:27;15.95;;;8.50;;
7829;SDS011;3960;51.86894000;5.39848000;2022-11-11T09:53:00;11.55;;;8.20;;
7829;SDS011;3960;51.86894000;5.39848000;2022-11-11T09:55:39;10.02;;;7.72;;
7829;SDS011;3960;51.86894000;5.39848000;2022-11-11T09:58:16;13.82;;;8.35;;
7829;SDS011;3960;51.86894000;5.39848000;2022-11-11T10:00:43;13.98;;;8.48;;
7829;SDS011;3960;51.86894000;5.39848000;2022-11-11T10:05:42;13.07;;;7.88;;
7829;SDS011;3960;51.86894000;5.39848000;2022-11-11T10:08:16;10.75;;;8.00;;
7829;SDS011;3960;51.86894000;5.39848000;2022-11-11T10:10:43;12.13;;;7.75;;
7829;SDS011;3960;51.86894000;5.39848000;2022-11-11T10:13:28;13.02;;;8.45;;
7829;SDS011;3960;51.86894000;5.39848000;2022-11-11T10:18:38;13.35;;;8.55;;
7829;SDS011;3960;51.86894000;5.39848000;2022-11-11T10:21:13;15.88;;;9.02;;
7829;SDS011;3960;51.86894000;5.39848000;2022-11-11T10:23:39;11.10;;;8.02;;
7829;SDS011;3960;51.86894000;5.39848000;2022-11-11T10:26:11;18.38;;;8.35;;
7829;SDS011;3960;51.86894000;5.39848000;2022-11-11T10:28:39;14.55;;;8.07;;
7829;SDS011;3960;51.86894000;5.39848000;2022-11-11T10:31:25;13.35;;;8.52;;
7829;SDS011;3960;51.86894000;5.39848000;2022-11-11T10:36:22;11.48;;;8.65;;
7829;SDS011;3960;51.86894000;5.39848000;2022-11-11T10:38:49;18.38;;;8.77;;
7829;SDS011;3960;51.86894000;5.39848000;2022-11-11T10:41:18;13.38;;;8.57;;
7829;SDS011;3960;51.86894000;5.39848000;2022-11-11T10:43:45;11.40;;;8.13;;
7829;SDS011;3960;51.86894000;5.39848000;2022-11-11T10:46:20;15.40;;;8.20;;
7829;SDS011;3960;51.86894000;5.39848000;2022-11-11T10:51:17;16.42;;;8.48;;
7829;SDS011;3960;51.86894000;5.39848000;2022-11-11T10:56:14;10.40;;;7.63;;
7829;SDS011;3960;51.86894000;5.39848000;2022-11-11T10:58:58;11.43;;;7.90;;
7829;SDS011;3960;51.86894000;5.39848000;2022-11-11T11:01:29;13.90;;;7.97;;
7829;SDS011;3960;51.86894000;5.39848000;2022-11-11T11:03:57;13.33;;;8.13;;
7829;SDS011;3960;51.86894000;5.39848000;2022-11-11T11:06:26;12.60;;;7.68;;
7829;SDS011;3960;51.86894000;5.39848000;2022-11-11T11:09:01;10.90;;;7.80;;
7829;SDS011;3960;51.86894000;5.39848000;2022-11-11T11:11:37;12.68;;;7.82;;
7829;SDS011;3960;51.86894000;5.39848000;2022-11-11T11:14:05;16.33;;;7.88;;
7829;SDS011;3960;51.86894000;5.39848000;2022-11-11T11:16:33;18.15;;;8.30;;
7829;SDS011;3960;51.86894000;5.39848000;2022-11-11T11:19:19;11.40;;;7.80;;
7829;SDS011;3960;51.86894000;5.39848000;2022-11-11T11:24:23;11.48;;;7.55;;
7829;SDS011;3960;51.86894000;5.39848000;2022-11-11T11:26:55;20.05;;;8.65;;
7829;SDS011;3960;51.86894000;5.39848000;2022-11-11T11:29:40;12.10;;;8.07;;
7829;SDS011;3960;51.86894000;5.39848000;2022-11-11T11:32:16;12.63;;;7.78;;
7829;SDS011;3960;51.86894000;5.39848000;2022-11-11T11:34:42;13.65;;;8.18;;
7829;SDS011;3960;51.86894000;5.39848000;2022-11-11T11:37:08;15.75;;;7.78;;
7829;SDS011;3960;51.86894000;5.39848000;2022-11-11T11:39:34;12.23;;;7.93;;
7829;SDS011;3960;51.86894000;5.39848000;2022-11-11T11:41:59;11.98;;;7.80;;
7829;SDS011;3960;51.86894000;5.39848000;2022-11-11T11:44:25;13.37;;;7.40;;
7829;SDS011;3960;51.86894000;5.39848000;2022-11-11T11:46:51;10.63;;;7.18;;
7829;SDS011;3960;51.86894000;5.39848000;2022-11-11T11:49:43;11.98;;;7.95;;
7829;SDS011;3960;51.86894000;5.39848000;2022-11-11T11:52:11;11.02;;;7.22;;
7829;SDS011;3960;51.86894000;5.39848000;2022-11-11T11:54:46;13.68;;;7.78;;
7829;SDS011;3960;51.86894000;5.39848000;2022-11-11T11:59:55;14.07;;;7.72;;
7829;SDS011;3960;51.86894000;5.39848000;2022-11-11T12:02:35;12.70;;;7.10;;
7829;SDS011;3960;51.86894000;5.39848000;2022-11-11T12:05:17;9.82;;;7.03;;
7829;SDS011;3960;51.86894000;5.39848000;2022-11-11T12:10:23;12.50;;;7.10;;
7829;SDS011;3960;51.86894000;5.39848000;2022-11-11T12:15:18;11.10;;;7.53;;
7829;SDS011;3960;51.86894000;5.39848000;2022-11-11T12:20:32;18.13;;;6.82;;
7829;SDS011;3960;51.86894000;5.39848000;2022-11-11T12:38:56;9.50;;;6.00;;
7829;SDS011;3960;51.86894000;5.39848000;2022-11-11T12:43:54;10.95;;;5.40;;
7829;SDS011;3960;51.86894000;5.39848000;2022-11-11T12:49:07;11.93;;;5.50;;
7829;SDS011;3960;51.86894000;5.39848000;2022-11-11T12:51:39;7.63;;;5.47;;
7829;SDS011;3960;51.86894000;5.39848000;2022-11-11T12:54:18;9.60;;;5.65;;
7829;SDS011;3960;51.86894000;5.39848000;2022-11-11T12:56:54;11.45;;;6.68;;
7829;SDS011;3960;51.86894000;5.39848000;2022-11-11T13:04:32;9.15;;;5.13;;
7829;SDS011;3960;51.86894000;5.39848000;2022-11-11T13:07:07;8.98;;;4.82;;
7829;SDS011;3960;51.86894000;5.39848000;2022-11-11T13:12:03;9.32;;;5.28;;
7829;SDS011;3960;51.86894000;5.39848000;2022-11-11T13:16:55;11.53;;;5.63;;
7829;SDS011;3960;51.86894000;5.39848000;2022-11-11T13:22:07;7.22;;;4.75;;
7829;SDS011;3960;51.86894000;5.39848000;2022-11-11T13:24:36;10.05;;;5.05;;
7829;SDS011;3960;51.86894000;5.39848000;2022-11-11T13:27:05;9.70;;;5.10;;
7829;SDS011;3960;51.86894000;5.39848000;2022-11-11T13:32:08;8.10;;;5.45;;
7829;SDS011;3960;51.86894000;5.39848000;2022-11-11T13:34:36;8.88;;;4.90;;
7829;SDS011;3960;51.86894000;5.39848000;2022-11-11T13:37:02;10.32;;;5.07;;
7829;SDS011;3960;51.86894000;5.39848000;2022-11-11T13:39:29;9.18;;;4.43;;
7829;SDS011;3960;51.86894000;5.39848000;2022-11-11T13:41:56;8.80;;;4.32;;
7829;SDS011;3960;51.86894000;5.39848000;2022-11-11T13:44:26;6.65;;;3.95;;
7829;SDS011;3960;51.86894000;5.39848000;2022-11-11T13:46:57;7.80;;;4.80;;
7829;SDS011;3960;51.86894000;5.39848000;2022-11-11T13:49:25;7.30;;;4.20;;
7829;SDS011;3960;51.86894000;5.39848000;2022-11-11T13:51:58;7.20;;;4.32;;
7829;SDS011;3960;51.86894000;5.39848000;2022-11-11T13:54:38;7.90;;;4.22;;
7829;SDS011;3960;51.86894000;5.39848000;2022-11-11T13:57:08;8.43;;;4.30;;
7829;SDS011;3960;51.86894000;5.39848000;2022-11-11T13:59:43;7.28;;;3.75;;
7829;SDS011;3960;51.86894000;5.39848000;2022-11-11T14:12:44;10.40;;;4.45;;
7829;SDS011;3960;51.86894000;5.39848000;2022-11-11T14:15:31;8.52;;;4.95;;
7829;SDS011;3960;51.86894000;5.39848000;2022-11-11T14:17:56;10.30;;;4.25;;
7829;SDS011;3960;51.86894000;5.39848000;2022-11-11T14:20:34;11.87;;;4.17;;
7829;SDS011;3960;51.86894000;5.39848000;2022-11-11T14:28:30;6.90;;;4.45;;
7829;SDS011;3960;51.86894000;5.39848000;2022-11-11T14:30:57;9.75;;;4.63;;
7829;SDS011;3960;51.86894000;5.39848000;2022-11-11T14:35:57;6.95;;;3.90;;
7829;SDS011;3960;51.86894000;5.39848000;2022-11-11T14:38:34;7.45;;;3.70;;